CJE7 weather

Ashern Airport
Ashern, Manitoba, Canada

Public forecast

Using degrees Celsius for public forecast. Weather courtesy of forecast.io.

Closest aviation weather report (METAR) to Ashern Airport

Closest report is Dauphin Barker Airport, 64.9 nm (120.2 km) W. Retrieved 2020/08/08 08:00 UTC (18 minutes ago):

CYDN 080800Z AUTO 24007KT 9SM CLR 14/09 A2977 RMK SLP083 DENSITY ALT 1300FT

Closest aviation forecast (TAF) to Ashern Airport

Closest forecast is Dauphin Barker Airport, 64.9 nm (120.2 km) W. Retrieved 2020/08/08 06:39 UTC (2 hours ago):

TAF CYDN 080538Z 0806/0818 27012G22KT P6SM OVC070 BECMG 0806/0807 SKC FM080800 26012G22KT P6SM SKC FM081400 25018G28KT P6SM SKC RMK FCST BASED ON AUTO OBS NXT FCST BY 081200Z